KLM166 KAUS-EHAM
Flight info
| Callsign | KLM166 |
|---|---|
| Flight time | 8h 56m |
| Altitude | 35000 |
| Route | ELOEL3 KLNGR DCT FUZ DCT KF18E DCT KM27G DCT KM36I DCT KK45K/N0475F370 DCT KI54M DCT KG63O DCT KC72Q DCT SVM DCT HOCKE Q923 KARIT DCT MT DCT 52N070W DCT YWK DCT HOIST/M082F390 DCT 57N050W 58N040W 58N030W 57N020W DCT PIKIL DCT SOVED/N0473F390 DCT LUTOV DCT BELOX L603 LAMSO |
| Aircraft | A333/H-SDE3GHIJ2J3J5M1RVWXY/LB2D1 |
Departure
| Time | 2026-04-30 09:35 |
|---|---|
| Airport | Austin Bergstrom International Airport (KAUS) |
Arrival
| Time | 2026-04-30 18:32 |
|---|---|
| Airport | Amsterdam Airport Schiphol (EHAM) |
| Time | Latitude | Longitude | Altitude | Speed | Heading |
|---|---|---|---|---|---|
| 2026-04-30 09:03 | 30.20227 | -97.66216 | 531 ft | 0 kts | 292° |
| 2026-04-30 09:23 | 30.20218 | -97.66189 | 531 ft | 4 kts | 284° |
| 2026-04-30 09:24 | 30.20215 | -97.66159 | 531 ft | 4 kts | 258° |
| 2026-04-30 09:24 | 30.20224 | -97.66138 | 531 ft | 3 kts | 187° |
| 2026-04-30 09:24 | 30.20227 | -97.66138 | 531 ft | 1 kts | 182° |
| 2026-04-30 09:26 | 30.20226 | -97.66138 | 531 ft | 0 kts | 181° |
| 2026-04-30 09:26 | 30.20221 | -97.66138 | 531 ft | 3 kts | 181° |
| 2026-04-30 09:26 | 30.20185 | -97.66138 | 531 ft | 8 kts | 178° |
| 2026-04-30 09:27 | 30.20115 | -97.66122 | 531 ft | 12 kts | 172° |
| 2026-04-30 09:27 | 30.20046 | -97.66150 | 531 ft | 10 kts | 236° |
| 2026-04-30 09:27 | 30.20034 | -97.66245 | 531 ft | 14 kts | 268° |
| 2026-04-30 09:27 | 30.20031 | -97.66347 | 531 ft | 11 kts | 263° |
| 2026-04-30 09:28 | 30.19986 | -97.66388 | 531 ft | 9 kts | 188° |
| 2026-04-30 09:28 | 30.19922 | -97.66419 | 531 ft | 11 kts | 236° |
| 2026-04-30 09:28 | 30.19910 | -97.66525 | 531 ft | 17 kts | 268° |
| 2026-04-30 09:28 | 30.19907 | -97.66685 | 531 ft | 23 kts | 269° |
| 2026-04-30 09:29 | 30.19903 | -97.66876 | 531 ft | 24 kts | 268° |
| 2026-04-30 09:29 | 30.19899 | -97.67063 | 531 ft | 23 kts | 269° |
| 2026-04-30 09:29 | 30.19896 | -97.67225 | 531 ft | 14 kts | 269° |
| 2026-04-30 09:29 | 30.19883 | -97.67312 | 531 ft | 10 kts | 233° |
| 2026-04-30 09:30 | 30.19822 | -97.67330 | 531 ft | 11 kts | 180° |
| 2026-04-30 09:30 | 30.19715 | -97.67328 | 531 ft | 19 kts | 179° |
| 2026-04-30 09:30 | 30.19556 | -97.67324 | 531 ft | 26 kts | 179° |
| 2026-04-30 09:30 | 30.19360 | -97.67319 | 531 ft | 29 kts | 179° |
| 2026-04-30 09:31 | 30.19152 | -97.67313 | 531 ft | 31 kts | 179° |
| 2026-04-30 09:31 | 30.18942 | -97.67307 | 531 ft | 30 kts | 178° |
| 2026-04-30 09:31 | 30.18741 | -97.67302 | 531 ft | 28 kts | 179° |
| 2026-04-30 09:31 | 30.18547 | -97.67297 | 531 ft | 27 kts | 179° |
| 2026-04-30 09:32 | 30.18356 | -97.67292 | 531 ft | 27 kts | 179° |
| 2026-04-30 09:32 | 30.18183 | -97.67288 | 531 ft | 19 kts | 179° |
| 2026-04-30 09:32 | 30.18076 | -97.67294 | 531 ft | 13 kts | 198° |
| 2026-04-30 09:32 | 30.18025 | -97.67367 | 531 ft | 13 kts | 258° |
| 2026-04-30 09:33 | 30.18019 | -97.67486 | 531 ft | 17 kts | 268° |
| 2026-04-30 09:33 | 30.18016 | -97.67628 | 531 ft | 18 kts | 269° |
| 2026-04-30 09:33 | 30.18014 | -97.67768 | 530 ft | 15 kts | 269° |
| 2026-04-30 09:33 | 30.18022 | -97.67836 | 530 ft | 6 kts | 307° |
| 2026-04-30 09:34 | 30.18060 | -97.67849 | 530 ft | 9 kts | 355° |
| 2026-04-30 09:34 | 30.18247 | -97.67855 | 529 ft | 53 kts | 359° |
| 2026-04-30 09:34 | 30.18793 | -97.67869 | 532 ft | 103 kts | 358° |
| 2026-04-30 09:34 | 30.19662 | -97.67892 | 530 ft | 145 kts | 359° |
| 2026-04-30 09:35 | 30.20771 | -97.67926 | 752 ft | 163 kts | 360° |
| 2026-04-30 09:35 | 30.21924 | -97.67984 | 1274 ft | 168 kts | 358° |
| 2026-04-30 09:35 | 30.23097 | -97.68023 | 1755 ft | 171 kts | 1° |
| 2026-04-30 09:35 | 30.24120 | -97.68081 | 2253 ft | 173 kts | 0° |
| 2026-04-30 09:36 | 30.25281 | -97.68163 | 2690 ft | 178 kts | 359° |
| 2026-04-30 09:36 | 30.26578 | -97.68243 | 2807 ft | 196 kts | 360° |
| 2026-04-30 09:36 | 30.27998 | -97.68308 | 2929 ft | 213 kts | 360° |
| 2026-04-30 09:36 | 30.29538 | -97.68384 | 3096 ft | 230 kts | 356° |
| 2026-04-30 09:37 | 30.31166 | -97.68779 | 3262 ft | 248 kts | 346° |
| 2026-04-30 09:37 | 30.32860 | -97.69376 | 3622 ft | 260 kts | 342° |
| 2026-04-30 09:37 | 30.34601 | -97.70045 | 4108 ft | 267 kts | 341° |
| 2026-04-30 09:37 | 30.36377 | -97.70747 | 4622 ft | 273 kts | 339° |
| 2026-04-30 09:38 | 30.38189 | -97.71470 | 5163 ft | 277 kts | 339° |
| 2026-04-30 09:38 | 30.40014 | -97.72198 | 5815 ft | 277 kts | 339° |
| 2026-04-30 09:38 | 30.41839 | -97.72904 | 6491 ft | 276 kts | 339° |
| 2026-04-30 09:38 | 30.43667 | -97.73598 | 7094 ft | 277 kts | 339° |
| 2026-04-30 09:39 | 30.45529 | -97.74302 | 7708 ft | 278 kts | 338° |
| 2026-04-30 09:39 | 30.47371 | -97.74999 | 8326 ft | 279 kts | 338° |
| 2026-04-30 09:39 | 30.49190 | -97.75691 | 8960 ft | 279 kts | 337° |
| 2026-04-30 09:39 | 30.51100 | -97.76200 | 9635 ft | 285 kts | 349° |
| 2026-04-30 09:40 | 30.53116 | -97.76073 | 10168 ft | 300 kts | 8° |
| 2026-04-30 09:40 | 30.55184 | -97.75262 | 10416 ft | 320 kts | 18° |
| 2026-04-30 09:40 | 30.57232 | -97.74076 | 10643 ft | 338 kts | 24° |
| 2026-04-30 09:40 | 30.59303 | -97.72645 | 10862 ft | 354 kts | 27° |
| 2026-04-30 09:41 | 30.61423 | -97.71079 | 11053 ft | 368 kts | 28° |
| 2026-04-30 09:41 | 30.63619 | -97.69442 | 11256 ft | 381 kts | 28° |
| 2026-04-30 09:41 | 30.65895 | -97.67771 | 11459 ft | 392 kts | 27° |
| 2026-04-30 09:41 | 30.68234 | -97.66086 | 11796 ft | 398 kts | 27° |
| 2026-04-30 09:42 | 30.70603 | -97.64405 | 12218 ft | 401 kts | 27° |
| 2026-04-30 09:42 | 30.72999 | -97.62723 | 12668 ft | 403 kts | 27° |
| 2026-04-30 09:42 | 30.75375 | -97.61064 | 13196 ft | 404 kts | 27° |
| 2026-04-30 09:42 | 30.77781 | -97.59387 | 13765 ft | 403 kts | 27° |
| 2026-04-30 09:43 | 30.80219 | -97.57690 | 14191 ft | 406 kts | 26° |
| 2026-04-30 09:43 | 30.82659 | -97.55992 | 14519 ft | 411 kts | 26° |
| 2026-04-30 09:43 | 30.85120 | -97.54278 | 14891 ft | 414 kts | 26° |
| 2026-04-30 09:43 | 30.87602 | -97.52546 | 15274 ft | 417 kts | 26° |
| 2026-04-30 09:44 | 30.90063 | -97.50826 | 15639 ft | 420 kts | 26° |
| 2026-04-30 09:44 | 30.92581 | -97.49065 | 16015 ft | 423 kts | 26° |
| 2026-04-30 09:44 | 30.95109 | -97.47295 | 16396 ft | 426 kts | 26° |
| 2026-04-30 09:44 | 30.97663 | -97.45506 | 16763 ft | 430 kts | 26° |
| 2026-04-30 09:45 | 31.00233 | -97.43704 | 17140 ft | 433 kts | 26° |
| 2026-04-30 09:45 | 31.02822 | -97.41888 | 17509 ft | 436 kts | 27° |
| 2026-04-30 09:45 | 31.05419 | -97.40065 | 17953 ft | 437 kts | 26° |
| 2026-04-30 09:45 | 31.08029 | -97.38231 | 18363 ft | 438 kts | 26° |
| 2026-04-30 09:46 | 31.10649 | -97.36390 | 18666 ft | 442 kts | 26° |
| 2026-04-30 09:46 | 31.13290 | -97.34534 | 18963 ft | 445 kts | 26° |
| 2026-04-30 09:46 | 31.15947 | -97.32666 | 19254 ft | 447 kts | 26° |
| 2026-04-30 09:46 | 31.18623 | -97.30783 | 19557 ft | 450 kts | 26° |
| 2026-04-30 09:47 | 31.21308 | -97.28891 | 19848 ft | 452 kts | 25° |
| 2026-04-30 09:47 | 31.24012 | -97.26984 | 20150 ft | 455 kts | 25° |
| 2026-04-30 09:47 | 31.26729 | -97.25068 | 20444 ft | 457 kts | 25° |
| 2026-04-30 09:47 | 31.29460 | -97.23140 | 20727 ft | 460 kts | 25° |
| 2026-04-30 09:48 | 31.32207 | -97.21200 | 21027 ft | 463 kts | 25° |
| 2026-04-30 09:48 | 31.34970 | -97.19248 | 21261 ft | 466 kts | 25° |
| 2026-04-30 09:48 | 31.37756 | -97.17278 | 21534 ft | 469 kts | 25° |
| 2026-04-30 09:48 | 31.40557 | -97.15295 | 21820 ft | 472 kts | 24° |
| 2026-04-30 09:49 | 31.43376 | -97.13297 | 22108 ft | 475 kts | 24° |
| 2026-04-30 09:49 | 31.46248 | -97.11262 | 22363 ft | 477 kts | 24° |
| 2026-04-30 09:49 | 31.49059 | -97.09268 | 22611 ft | 480 kts | 24° |
| 2026-04-30 09:49 | 31.51922 | -97.07235 | 22885 ft | 482 kts | 24° |
| 2026-04-30 09:50 | 31.54800 | -97.05190 | 23157 ft | 485 kts | 24° |
| 2026-04-30 09:50 | 31.57694 | -97.03132 | 23413 ft | 488 kts | 24° |
| 2026-04-30 09:50 | 31.59655 | -97.01737 | 23584 ft | 489 kts | 24° |
| 2026-04-30 09:50 | 31.63525 | -96.98982 | 23826 ft | 494 kts | 24° |
| 2026-04-30 09:51 | 31.65514 | -96.97566 | 23942 ft | 496 kts | 24° |
| 2026-04-30 09:51 | 31.69426 | -96.94775 | 24291 ft | 497 kts | 24° |
| 2026-04-30 09:51 | 31.72383 | -96.92662 | 24546 ft | 498 kts | 24° |
| 2026-04-30 09:51 | 31.75349 | -96.90543 | 24795 ft | 499 kts | 24° |
| 2026-04-30 09:52 | 31.77356 | -96.89108 | 24951 ft | 500 kts | 24° |
| 2026-04-30 09:52 | 31.80329 | -96.86981 | 25188 ft | 502 kts | 24° |
| 2026-04-30 09:52 | 31.83316 | -96.84843 | 25419 ft | 503 kts | 24° |
| 2026-04-30 09:52 | 31.86307 | -96.82701 | 25682 ft | 503 kts | 24° |
| 2026-04-30 09:53 | 31.89293 | -96.80559 | 26012 ft | 503 kts | 23° |
| 2026-04-30 09:53 | 31.92286 | -96.78413 | 26197 ft | 505 kts | 23° |
| 2026-04-30 09:53 | 31.95295 | -96.76254 | 26376 ft | 508 kts | 23° |
| 2026-04-30 09:53 | 31.98316 | -96.74085 | 26607 ft | 509 kts | 23° |
| 2026-04-30 09:54 | 32.01335 | -96.71914 | 26840 ft | 510 kts | 23° |
| 2026-04-30 09:54 | 32.04367 | -96.69732 | 27069 ft | 511 kts | 23° |
| 2026-04-30 09:54 | 32.07401 | -96.67547 | 27280 ft | 512 kts | 23° |
| 2026-04-30 09:54 | 32.10442 | -96.65355 | 27488 ft | 513 kts | 23° |
| 2026-04-30 09:55 | 32.13447 | -96.63188 | 27696 ft | 514 kts | 23° |
| 2026-04-30 09:55 | 32.16547 | -96.60950 | 27907 ft | 515 kts | 23° |
| 2026-04-30 09:55 | 32.19564 | -96.58770 | 28148 ft | 516 kts | 23° |
| 2026-04-30 09:55 | 32.22627 | -96.56556 | 28392 ft | 516 kts | 23° |
| 2026-04-30 09:56 | 32.25732 | -96.54308 | 28586 ft | 517 kts | 22° |
| 2026-04-30 09:56 | 32.28805 | -96.52083 | 28774 ft | 519 kts | 22° |
| 2026-04-30 09:56 | 32.31839 | -96.49883 | 29049 ft | 518 kts | 22° |
| 2026-04-30 09:56 | 32.34901 | -96.47660 | 29362 ft | 516 kts | 22° |
| 2026-04-30 09:57 | 32.37953 | -96.45441 | 29677 ft | 514 kts | 22° |
| 2026-04-30 09:57 | 32.40995 | -96.43229 | 30009 ft | 512 kts | 22° |
| 2026-04-30 09:57 | 32.44025 | -96.41024 | 30262 ft | 511 kts | 22° |
| 2026-04-30 09:57 | 32.47097 | -96.38789 | 30484 ft | 511 kts | 22° |
| 2026-04-30 09:58 | 32.53211 | -96.34346 | 30632 ft | 517 kts | 22° |
| 2026-04-30 09:58 | 32.56268 | -96.32116 | 30899 ft | 515 kts | 22° |
| 2026-04-30 09:58 | 32.59314 | -96.29889 | 31180 ft | 513 kts | 22° |
| 2026-04-30 09:59 | 32.65374 | -96.25453 | 31689 ft | 510 kts | 22° |
| 2026-04-30 09:59 | 32.71398 | -96.21042 | 32180 ft | 508 kts | 21° |
| 2026-04-30 10:00 | 32.77427 | -96.16628 | 32344 ft | 514 kts | 21° |
| 2026-04-30 10:00 | 32.80490 | -96.14389 | 32361 ft | 518 kts | 21° |
| 2026-04-30 10:01 | 32.86618 | -96.09885 | 32773 ft | 517 kts | 21° |
| 2026-04-30 10:01 | 32.89633 | -96.07661 | 33011 ft | 516 kts | 21° |
| 2026-04-30 10:01 | 32.92681 | -96.05412 | 33257 ft | 515 kts | 21° |
| 2026-04-30 10:02 | 32.98720 | -96.00796 | 33655 ft | 523 kts | 27° |
| 2026-04-30 10:02 | 33.01483 | -95.97900 | 33826 ft | 534 kts | 34° |
| 2026-04-30 10:02 | 33.04110 | -95.94748 | 34033 ft | 537 kts | 36° |
| 2026-04-30 10:02 | 33.06677 | -95.91503 | 34186 ft | 539 kts | 38° |
| 2026-04-30 10:03 | 33.09208 | -95.88208 | 34345 ft | 539 kts | 38° |
| 2026-04-30 10:03 | 33.11722 | -95.84895 | 34496 ft | 539 kts | 38° |
| 2026-04-30 10:03 | 33.14233 | -95.81581 | 34651 ft | 538 kts | 38° |
| 2026-04-30 10:03 | 33.16746 | -95.78269 | 34807 ft | 537 kts | 38° |
| 2026-04-30 10:04 | 33.19259 | -95.74968 | 34948 ft | 537 kts | 38° |
| 2026-04-30 10:04 | 33.24301 | -95.68369 | 35033 ft | 539 kts | 38° |
| 2026-04-30 10:05 | 33.29347 | -95.61762 | 35049 ft | 537 kts | 38° |
| 2026-04-30 10:05 | 33.34381 | -95.55160 | 35041 ft | 537 kts | 38° |
| 2026-04-30 10:06 | 33.39411 | -95.48553 | 35040 ft | 537 kts | 38° |
| 2026-04-30 10:06 | 33.44439 | -95.41935 | 35028 ft | 537 kts | 38° |
| 2026-04-30 10:07 | 33.49463 | -95.35309 | 35027 ft | 537 kts | 38° |
| 2026-04-30 10:07 | 33.54479 | -95.28679 | 35023 ft | 536 kts | 38° |
| 2026-04-30 10:08 | 33.59473 | -95.22063 | 35038 ft | 535 kts | 38° |
| 2026-04-30 10:08 | 33.64486 | -95.15421 | 35027 ft | 538 kts | 38° |
| 2026-04-30 10:09 | 33.69475 | -95.08793 | 35034 ft | 539 kts | 38° |
| 2026-04-30 10:09 | 33.74492 | -95.02111 | 35032 ft | 539 kts | 38° |
| 2026-04-30 10:10 | 33.79508 | -94.95419 | 35031 ft | 539 kts | 38° |
| 2026-04-30 10:10 | 33.84519 | -94.88722 | 35034 ft | 538 kts | 38° |
| 2026-04-30 10:11 | 33.89523 | -94.82021 | 35026 ft | 539 kts | 38° |
| 2026-04-30 10:11 | 33.94567 | -94.75255 | 35044 ft | 539 kts | 38° |
| 2026-04-30 10:12 | 33.99572 | -94.68529 | 35037 ft | 539 kts | 38° |
| 2026-04-30 10:12 | 34.04540 | -94.61838 | 35053 ft | 539 kts | 38° |
| 2026-04-30 10:13 | 34.09540 | -94.55093 | 35045 ft | 539 kts | 38° |
| 2026-04-30 10:13 | 34.14526 | -94.48351 | 35067 ft | 538 kts | 38° |
| 2026-04-30 10:14 | 34.19514 | -94.41597 | 35046 ft | 539 kts | 38° |
| 2026-04-30 10:14 | 34.27004 | -94.31430 | 35048 ft | 540 kts | 38° |
| 2026-04-30 10:15 | 34.31990 | -94.24643 | 35050 ft | 540 kts | 38° |
| 2026-04-30 10:15 | 34.36972 | -94.17848 | 35062 ft | 540 kts | 38° |
| 2026-04-30 10:16 | 34.41951 | -94.11046 | 35076 ft | 540 kts | 38° |
| 2026-04-30 10:17 | 34.49449 | -94.00785 | 35067 ft | 543 kts | 38° |
| 2026-04-30 10:17 | 34.57106 | -93.90719 | 35066 ft | 540 kts | 36° |
| 2026-04-30 10:18 | 34.62261 | -93.84073 | 35067 ft | 540 kts | 36° |
| 2026-04-30 10:19 | 34.69984 | -93.74052 | 35085 ft | 544 kts | 35° |
| 2026-04-30 10:19 | 34.75150 | -93.67304 | 35069 ft | 546 kts | 35° |
| 2026-04-30 10:20 | 34.80330 | -93.60524 | 35077 ft | 547 kts | 35° |
| 2026-04-30 10:20 | 34.88087 | -93.50345 | 35077 ft | 547 kts | 35° |
| 2026-04-30 10:21 | 34.93261 | -93.43538 | 35081 ft | 547 kts | 35° |
| 2026-04-30 10:21 | 34.98429 | -93.36728 | 35084 ft | 548 kts | 34° |
| 2026-04-30 10:22 | 35.03611 | -93.29888 | 35084 ft | 549 kts | 35° |
| 2026-04-30 10:22 | 35.08792 | -93.23031 | 35081 ft | 549 kts | 35° |
| 2026-04-30 10:23 | 35.13937 | -93.16209 | 35089 ft | 549 kts | 35° |
| 2026-04-30 10:23 | 35.19111 | -93.09335 | 35109 ft | 549 kts | 35° |
| 2026-04-30 10:24 | 35.24277 | -93.02457 | 35114 ft | 549 kts | 33° |
| 2026-04-30 10:24 | 35.29435 | -92.95574 | 35108 ft | 548 kts | 33° |
| 2026-04-30 10:25 | 35.34582 | -92.88695 | 35106 ft | 548 kts | 34° |
| 2026-04-30 10:25 | 35.39729 | -92.81804 | 35102 ft | 548 kts | 34° |
| 2026-04-30 10:26 | 35.44875 | -92.74900 | 35113 ft | 548 kts | 34° |
| 2026-04-30 10:26 | 35.50018 | -92.67984 | 35134 ft | 548 kts | 33° |
| 2026-04-30 10:27 | 35.55145 | -92.61072 | 35136 ft | 547 kts | 33° |
| 2026-04-30 10:27 | 35.60260 | -92.54166 | 35147 ft | 546 kts | 33° |
| 2026-04-30 10:28 | 35.65370 | -92.47252 | 35151 ft | 546 kts | 33° |
| 2026-04-30 10:28 | 35.70482 | -92.40323 | 35141 ft | 547 kts | 33° |
| 2026-04-30 10:29 | 35.75585 | -92.33391 | 35145 ft | 546 kts | 33° |
| 2026-04-30 10:29 | 35.80680 | -92.26453 | 35148 ft | 546 kts | 33° |
| 2026-04-30 10:30 | 35.85761 | -92.19521 | 35137 ft | 545 kts | 33° |
| 2026-04-30 10:30 | 35.90840 | -92.12579 | 35131 ft | 545 kts | 33° |
| 2026-04-30 10:31 | 35.95916 | -92.05627 | 35130 ft | 545 kts | 33° |
| 2026-04-30 10:31 | 36.00991 | -91.98695 | 35130 ft | 543 kts | 33° |
| 2026-04-30 10:32 | 36.06168 | -91.91931 | 35129 ft | 541 kts | 31° |
| 2026-04-30 10:32 | 36.11374 | -91.85232 | 35131 ft | 540 kts | 32° |
| 2026-04-30 10:33 | 36.16565 | -91.78519 | 35126 ft | 540 kts | 32° |
| 2026-04-30 10:33 | 36.21744 | -91.71780 | 35127 ft | 540 kts | 32° |
| 2026-04-30 10:34 | 36.26916 | -91.65027 | 35136 ft | 540 kts | 32° |
| 2026-04-30 10:34 | 36.32086 | -91.58262 | 35127 ft | 541 kts | 32° |
| 2026-04-30 10:35 | 36.37258 | -91.51479 | 35133 ft | 541 kts | 32° |
| 2026-04-30 10:35 | 36.42420 | -91.44693 | 35129 ft | 540 kts | 32° |
| 2026-04-30 10:36 | 36.46703 | -91.39053 | 35128 ft | 540 kts | 32° |
| 2026-04-30 10:36 | 36.51858 | -91.32255 | 35143 ft | 540 kts | 33° |
| 2026-04-30 10:37 | 36.57003 | -91.25458 | 35129 ft | 540 kts | 33° |
| 2026-04-30 10:37 | 36.63017 | -91.17491 | 35128 ft | 540 kts | 33° |
| 2026-04-30 10:38 | 36.67291 | -91.11817 | 35128 ft | 540 kts | 33° |
| 2026-04-30 10:38 | 36.72417 | -91.04996 | 35124 ft | 539 kts | 33° |
| 2026-04-30 10:39 | 36.77540 | -90.98168 | 35125 ft | 538 kts | 34° |
| 2026-04-30 10:39 | 36.82649 | -90.91342 | 35121 ft | 538 kts | 34° |
| 2026-04-30 10:40 | 36.87784 | -90.84470 | 35126 ft | 538 kts | 34° |
| 2026-04-30 10:40 | 36.92850 | -90.77678 | 35126 ft | 538 kts | 34° |
| 2026-04-30 10:41 | 36.97942 | -90.70834 | 35130 ft | 537 kts | 34° |
| 2026-04-30 10:41 | 37.03021 | -90.63991 | 35129 ft | 535 kts | 35° |
| 2026-04-30 10:42 | 37.08078 | -90.57165 | 35138 ft | 534 kts | 35° |
| 2026-04-30 10:42 | 37.13128 | -90.50337 | 35135 ft | 535 kts | 35° |
| 2026-04-30 10:43 | 37.18185 | -90.43485 | 35133 ft | 535 kts | 35° |
| 2026-04-30 10:43 | 37.23263 | -90.36587 | 35144 ft | 535 kts | 36° |
| 2026-04-30 10:44 | 37.28276 | -90.29790 | 35139 ft | 534 kts | 37° |
| 2026-04-30 10:44 | 37.33286 | -90.22888 | 35142 ft | 534 kts | 36° |
| 2026-04-30 10:45 | 37.38311 | -90.16032 | 35140 ft | 533 kts | 36° |
| 2026-04-30 10:45 | 37.43337 | -90.09168 | 35139 ft | 534 kts | 36° |
| 2026-04-30 10:46 | 37.48359 | -90.02282 | 35174 ft | 534 kts | 37° |
| 2026-04-30 10:46 | 37.53430 | -89.95484 | 35133 ft | 531 kts | 34° |
| 2026-04-30 10:47 | 37.58585 | -89.88835 | 35132 ft | 530 kts | 34° |
| 2026-04-30 10:47 | 37.63746 | -89.82192 | 35137 ft | 530 kts | 34° |
| 2026-04-30 10:48 | 37.68896 | -89.75519 | 35133 ft | 531 kts | 34° |
| 2026-04-30 10:48 | 37.74034 | -89.68826 | 35142 ft | 531 kts | 35° |
| 2026-04-30 10:49 | 37.79164 | -89.62123 | 35135 ft | 530 kts | 35° |
| 2026-04-30 10:49 | 37.84287 | -89.55417 | 35135 ft | 530 kts | 35° |
| 2026-04-30 10:50 | 37.89407 | -89.48702 | 35125 ft | 530 kts | 35° |
| 2026-04-30 10:50 | 37.94489 | -89.42023 | 35124 ft | 530 kts | 35° |
| 2026-04-30 10:51 | 37.99598 | -89.35293 | 35130 ft | 529 kts | 36° |
| 2026-04-30 10:51 | 38.04698 | -89.28559 | 35120 ft | 529 kts | 36° |
| 2026-04-30 10:52 | 38.09788 | -89.21826 | 35140 ft | 529 kts | 36° |
| 2026-04-30 10:52 | 38.14872 | -89.15086 | 35134 ft | 528 kts | 36° |
| 2026-04-30 10:53 | 38.19952 | -89.08340 | 35162 ft | 531 kts | 37° |
| 2026-04-30 10:53 | 38.25082 | -89.01583 | 35129 ft | 530 kts | 37° |
| 2026-04-30 10:54 | 38.30178 | -88.94791 | 35239 ft | 531 kts | 37° |
| 2026-04-30 10:54 | 38.32714 | -88.91373 | 35393 ft | 531 kts | 37° |
| 2026-04-30 10:54 | 38.35251 | -88.87954 | 35543 ft | 530 kts | 37° |
| 2026-04-30 10:55 | 38.37785 | -88.84542 | 35656 ft | 530 kts | 37° |
| 2026-04-30 10:55 | 38.40319 | -88.81135 | 35797 ft | 530 kts | 37° |
| 2026-04-30 10:55 | 38.42889 | -88.77682 | 35920 ft | 529 kts | 37° |
| 2026-04-30 10:55 | 38.45423 | -88.74275 | 36037 ft | 530 kts | 37° |
| 2026-04-30 10:56 | 38.47959 | -88.70865 | 36150 ft | 530 kts | 37° |
| 2026-04-30 10:56 | 38.50497 | -88.67449 | 36259 ft | 530 kts | 37° |
| 2026-04-30 10:56 | 38.53029 | -88.64036 | 36381 ft | 530 kts | 37° |
| 2026-04-30 10:56 | 38.55566 | -88.60613 | 36472 ft | 530 kts | 37° |
| 2026-04-30 10:57 | 38.58098 | -88.57193 | 36586 ft | 530 kts | 37° |
| 2026-04-30 10:57 | 38.60635 | -88.53761 | 36678 ft | 530 kts | 37° |
| 2026-04-30 10:57 | 38.65667 | -88.46944 | 36932 ft | 530 kts | 37° |
| 2026-04-30 10:58 | 38.68193 | -88.43515 | 37074 ft | 529 kts | 37° |
| 2026-04-30 10:58 | 38.70721 | -88.40080 | 37129 ft | 530 kts | 37° |
| 2026-04-30 10:58 | 38.75774 | -88.33205 | 37129 ft | 530 kts | 37° |
| 2026-04-30 10:59 | 38.80821 | -88.26320 | 37129 ft | 530 kts | 37° |
| 2026-04-30 10:59 | 38.85866 | -88.19424 | 37128 ft | 530 kts | 38° |
| 2026-04-30 11:00 | 38.90901 | -88.12527 | 37132 ft | 529 kts | 38° |
| 2026-04-30 11:00 | 38.95927 | -88.05625 | 37135 ft | 529 kts | 38° |
| 2026-04-30 11:01 | 39.00955 | -87.98744 | 37123 ft | 527 kts | 37° |
| 2026-04-30 11:01 | 39.06091 | -87.92045 | 37120 ft | 525 kts | 36° |
| 2026-04-30 11:02 | 39.11264 | -87.85407 | 37132 ft | 525 kts | 36° |
| 2026-04-30 11:02 | 39.16427 | -87.78747 | 37115 ft | 525 kts | 36° |
| 2026-04-30 11:03 | 39.21565 | -87.72074 | 37115 ft | 524 kts | 37° |
| 2026-04-30 11:04 | 39.29260 | -87.62037 | 37119 ft | 524 kts | 37° |
| 2026-04-30 11:04 | 39.34384 | -87.55335 | 37135 ft | 525 kts | 37° |
| 2026-04-30 11:05 | 39.39472 | -87.48665 | 37105 ft | 524 kts | 37° |
| 2026-04-30 11:05 | 39.44615 | -87.41908 | 37095 ft | 524 kts | 37° |
| 2026-04-30 11:06 | 39.49724 | -87.35181 | 37098 ft | 524 kts | 37° |
| 2026-04-30 11:06 | 39.54830 | -87.28445 | 37141 ft | 524 kts | 37° |
| 2026-04-30 11:07 | 39.59930 | -87.21700 | 37105 ft | 524 kts | 38° |
| 2026-04-30 11:07 | 39.65032 | -87.14937 | 37104 ft | 524 kts | 38° |
| 2026-04-30 11:08 | 39.70127 | -87.08169 | 37100 ft | 524 kts | 38° |
| 2026-04-30 11:08 | 39.75185 | -87.01435 | 37099 ft | 524 kts | 38° |
| 2026-04-30 11:09 | 39.80276 | -86.94642 | 37114 ft | 524 kts | 38° |
| 2026-04-30 11:09 | 39.85361 | -86.87841 | 37101 ft | 524 kts | 38° |
| 2026-04-30 11:10 | 39.90469 | -86.80994 | 37101 ft | 524 kts | 38° |
| 2026-04-30 11:10 | 39.95543 | -86.74176 | 37101 ft | 524 kts | 38° |
| 2026-04-30 11:11 | 40.00606 | -86.67359 | 37106 ft | 524 kts | 39° |
| 2026-04-30 11:11 | 40.05634 | -86.60572 | 37100 ft | 523 kts | 39° |
| 2026-04-30 11:12 | 40.10717 | -86.53697 | 37088 ft | 523 kts | 39° |
| 2026-04-30 11:12 | 40.15761 | -86.46858 | 37084 ft | 522 kts | 39° |
| 2026-04-30 11:13 | 40.20905 | -86.39868 | 37096 ft | 522 kts | 39° |
| 2026-04-30 11:13 | 40.25121 | -86.34127 | 37087 ft | 522 kts | 39° |
| 2026-04-30 11:14 | 40.30145 | -86.27271 | 37091 ft | 522 kts | 39° |
| 2026-04-30 11:14 | 40.35161 | -86.20411 | 37102 ft | 522 kts | 39° |
| 2026-04-30 11:15 | 40.40180 | -86.13530 | 37100 ft | 522 kts | 40° |
| 2026-04-30 11:15 | 40.45188 | -86.06649 | 37103 ft | 521 kts | 40° |
| 2026-04-30 11:16 | 40.50199 | -85.99761 | 37112 ft | 520 kts | 39° |
| 2026-04-30 11:16 | 40.55311 | -85.93054 | 37313 ft | 519 kts | 38° |
| 2026-04-30 11:17 | 40.60482 | -85.86426 | 37300 ft | 519 kts | 38° |
| 2026-04-30 11:17 | 40.65647 | -85.79780 | 37106 ft | 519 kts | 38° |
| 2026-04-30 11:18 | 40.70793 | -85.73110 | 37101 ft | 519 kts | 38° |
| 2026-04-30 11:18 | 40.78499 | -85.63070 | 37095 ft | 519 kts | 38° |
| 2026-04-30 11:19 | 40.83639 | -85.56353 | 37094 ft | 520 kts | 38° |
| 2026-04-30 11:19 | 40.88771 | -85.49633 | 37084 ft | 519 kts | 38° |
| 2026-04-30 11:20 | 40.93899 | -85.42901 | 37083 ft | 520 kts | 38° |
| 2026-04-30 11:20 | 40.99023 | -85.36162 | 37081 ft | 520 kts | 39° |
| 2026-04-30 11:21 | 41.04182 | -85.29359 | 37101 ft | 520 kts | 39° |
| 2026-04-30 11:21 | 41.09305 | -85.22588 | 37081 ft | 520 kts | 39° |
| 2026-04-30 11:22 | 41.14423 | -85.15808 | 37081 ft | 520 kts | 39° |
| 2026-04-30 11:22 | 41.19503 | -85.09062 | 37084 ft | 520 kts | 39° |
| 2026-04-30 11:23 | 41.24616 | -85.02258 | 37087 ft | 520 kts | 39° |
| 2026-04-30 11:24 | 41.32305 | -84.91994 | 37068 ft | 520 kts | 39° |
| 2026-04-30 11:24 | 41.37365 | -84.85219 | 37047 ft | 520 kts | 39° |
| 2026-04-30 11:25 | 41.45007 | -84.74958 | 37069 ft | 520 kts | 40° |
| 2026-04-30 11:26 | 41.55203 | -84.61210 | 37042 ft | 520 kts | 40° |
| 2026-04-30 11:26 | 41.60252 | -84.54379 | 37043 ft | 520 kts | 40° |
| 2026-04-30 11:27 | 41.65328 | -84.47495 | 37061 ft | 520 kts | 40° |
| 2026-04-30 11:27 | 41.70434 | -84.40551 | 37039 ft | 520 kts | 40° |
| 2026-04-30 11:28 | 41.77997 | -84.30238 | 37042 ft | 520 kts | 40° |
| 2026-04-30 11:29 | 41.83056 | -84.23319 | 37044 ft | 520 kts | 40° |
| 2026-04-30 11:29 | 41.90650 | -84.12901 | 37045 ft | 520 kts | 41° |
| 2026-04-30 11:30 | 41.98236 | -84.02463 | 37044 ft | 520 kts | 40° |
| 2026-04-30 11:31 | 42.03791 | -83.96290 | 37041 ft | 513 kts | 32° |
| 2026-04-30 11:31 | 42.09512 | -83.90552 | 37035 ft | 513 kts | 31° |
| 2026-04-30 11:32 | 42.15314 | -83.84840 | 37028 ft | 514 kts | 31° |
| 2026-04-30 11:32 | 42.21085 | -83.79141 | 37017 ft | 514 kts | 31° |
| 2026-04-30 11:33 | 42.29718 | -83.70554 | 37017 ft | 514 kts | 31° |
| 2026-04-30 11:33 | 42.35473 | -83.64806 | 37019 ft | 514 kts | 31° |
| 2026-04-30 11:34 | 42.41218 | -83.59051 | 37018 ft | 514 kts | 32° |
| 2026-04-30 11:34 | 42.46940 | -83.53244 | 37017 ft | 514 kts | 32° |
| 2026-04-30 11:35 | 42.52688 | -83.47367 | 37016 ft | 515 kts | 32° |
| 2026-04-30 11:35 | 42.58404 | -83.41511 | 37009 ft | 515 kts | 32° |
| 2026-04-30 11:36 | 42.64121 | -83.35647 | 37009 ft | 515 kts | 32° |
| 2026-04-30 11:36 | 42.69836 | -83.29772 | 37010 ft | 515 kts | 32° |
| 2026-04-30 11:37 | 42.75507 | -83.23931 | 37007 ft | 515 kts | 32° |
| 2026-04-30 11:37 | 42.81252 | -83.17998 | 37006 ft | 515 kts | 32° |
| 2026-04-30 11:38 | 42.86956 | -83.12094 | 36987 ft | 515 kts | 33° |
| 2026-04-30 11:38 | 42.92652 | -83.06184 | 36984 ft | 515 kts | 33° |
| 2026-04-30 11:39 | 42.98348 | -83.00259 | 36977 ft | 515 kts | 33° |
| 2026-04-30 11:39 | 43.04045 | -82.94321 | 36987 ft | 514 kts | 33° |
| 2026-04-30 11:40 | 43.09687 | -82.88424 | 36986 ft | 514 kts | 33° |
| 2026-04-30 11:40 | 43.15364 | -82.82478 | 36980 ft | 514 kts | 33° |
| 2026-04-30 11:41 | 43.21037 | -82.76521 | 37001 ft | 514 kts | 34° |
| 2026-04-30 11:41 | 43.26697 | -82.70524 | 36985 ft | 515 kts | 36° |
| 2026-04-30 11:42 | 43.32138 | -82.64094 | 36982 ft | 517 kts | 38° |
| 2026-04-30 11:42 | 43.37469 | -82.57469 | 36982 ft | 517 kts | 39° |
| 2026-04-30 11:43 | 43.42811 | -82.50846 | 36987 ft | 516 kts | 39° |
| 2026-04-30 11:43 | 43.48158 | -82.44264 | 36987 ft | 516 kts | 39° |
| 2026-04-30 11:44 | 43.53512 | -82.37685 | 36982 ft | 516 kts | 39° |
| 2026-04-30 11:44 | 43.58870 | -82.31090 | 37010 ft | 517 kts | 39° |
| 2026-04-30 11:45 | 43.64225 | -82.24478 | 36992 ft | 516 kts | 39° |
| 2026-04-30 11:45 | 43.69566 | -82.17865 | 36990 ft | 516 kts | 39° |
| 2026-04-30 11:46 | 43.74987 | -82.11382 | 36995 ft | 514 kts | 36° |
| 2026-04-30 11:46 | 43.80614 | -82.05281 | 36994 ft | 513 kts | 34° |
| 2026-04-30 11:47 | 43.86274 | -81.99239 | 36989 ft | 513 kts | 35° |
| 2026-04-30 11:47 | 43.91907 | -81.93153 | 36996 ft | 514 kts | 35° |
| 2026-04-30 11:48 | 43.97529 | -81.87017 | 36992 ft | 513 kts | 36° |
| 2026-04-30 11:48 | 44.03124 | -81.80881 | 36995 ft | 513 kts | 36° |
| 2026-04-30 11:49 | 44.07773 | -81.75772 | 36980 ft | 513 kts | 36° |
| 2026-04-30 11:49 | 44.13367 | -81.69613 | 36995 ft | 513 kts | 36° |
| 2026-04-30 11:50 | 44.19859 | -81.62446 | 36970 ft | 512 kts | 36° |
| 2026-04-30 11:50 | 44.24538 | -81.57269 | 36976 ft | 513 kts | 36° |
| 2026-04-30 11:51 | 44.30125 | -81.51073 | 36994 ft | 513 kts | 36° |
| 2026-04-30 11:51 | 44.35706 | -81.44868 | 36972 ft | 512 kts | 36° |
| 2026-04-30 11:52 | 44.41278 | -81.38656 | 36975 ft | 512 kts | 37° |
| 2026-04-30 11:52 | 44.46846 | -81.32435 | 36966 ft | 512 kts | 37° |
| 2026-04-30 11:53 | 44.52414 | -81.26197 | 36964 ft | 512 kts | 37° |
| 2026-04-30 11:53 | 44.57976 | -81.19950 | 36963 ft | 513 kts | 37° |
| 2026-04-30 11:54 | 44.63585 | -81.13635 | 36962 ft | 513 kts | 37° |
| 2026-04-30 11:54 | 44.69112 | -81.07395 | 36962 ft | 513 kts | 37° |
| 2026-04-30 11:55 | 44.74661 | -81.01115 | 36960 ft | 512 kts | 37° |
| 2026-04-30 11:55 | 44.80246 | -80.94779 | 36962 ft | 512 kts | 37° |
| 2026-04-30 11:56 | 44.85747 | -80.88521 | 36962 ft | 512 kts | 37° |
| 2026-04-30 11:56 | 44.91289 | -80.82202 | 36968 ft | 512 kts | 37° |
| 2026-04-30 11:57 | 44.96823 | -80.75875 | 36974 ft | 512 kts | 38° |
| 2026-04-30 11:57 | 45.02360 | -80.69529 | 36984 ft | 513 kts | 38° |
| 2026-04-30 11:58 | 45.07895 | -80.63168 | 36979 ft | 513 kts | 38° |
| 2026-04-30 11:58 | 45.13425 | -80.56796 | 36968 ft | 513 kts | 38° |
| 2026-04-30 11:59 | 45.18953 | -80.50411 | 36975 ft | 513 kts | 38° |
| 2026-04-30 11:59 | 45.24477 | -80.44013 | 36965 ft | 512 kts | 38° |
| 2026-04-30 12:00 | 45.29991 | -80.37611 | 36960 ft | 512 kts | 38° |
| 2026-04-30 12:00 | 45.35505 | -80.31192 | 36960 ft | 513 kts | 38° |
| 2026-04-30 12:01 | 45.41020 | -80.24755 | 36953 ft | 512 kts | 39° |
| 2026-04-30 12:01 | 45.46527 | -80.18310 | 36955 ft | 513 kts | 39° |
| 2026-04-30 12:02 | 45.52041 | -80.11841 | 36949 ft | 513 kts | 39° |
| 2026-04-30 12:02 | 45.57550 | -80.05361 | 36949 ft | 513 kts | 39° |
| 2026-04-30 12:03 | 45.65801 | -79.95623 | 36955 ft | 513 kts | 39° |
| 2026-04-30 12:04 | 45.71295 | -79.89117 | 36947 ft | 513 kts | 39° |
| 2026-04-30 12:04 | 45.76785 | -79.82599 | 36946 ft | 512 kts | 39° |
| 2026-04-30 12:05 | 45.82264 | -79.76077 | 36952 ft | 512 kts | 39° |
| 2026-04-30 12:05 | 45.87744 | -79.69536 | 36938 ft | 512 kts | 39° |
| 2026-04-30 12:06 | 45.93214 | -79.62990 | 36945 ft | 512 kts | 40° |
| 2026-04-30 12:06 | 45.98687 | -79.56423 | 36944 ft | 512 kts | 40° |
| 2026-04-30 12:07 | 46.04157 | -79.49843 | 36945 ft | 512 kts | 40° |
| 2026-04-30 12:07 | 46.09621 | -79.43250 | 36940 ft | 512 kts | 40° |
| 2026-04-30 12:08 | 46.15074 | -79.36655 | 36932 ft | 512 kts | 40° |
| 2026-04-30 12:08 | 46.20527 | -79.30041 | 36932 ft | 512 kts | 40° |
| 2026-04-30 12:09 | 46.25937 | -79.23462 | 36931 ft | 512 kts | 40° |
| 2026-04-30 12:09 | 46.31379 | -79.16827 | 36932 ft | 512 kts | 40° |
| 2026-04-30 12:10 | 46.36816 | -79.10181 | 36929 ft | 512 kts | 40° |
| 2026-04-30 12:10 | 46.42250 | -79.03518 | 36947 ft | 512 kts | 40° |
| 2026-04-30 12:11 | 46.47684 | -78.96839 | 36945 ft | 512 kts | 41° |
| 2026-04-30 12:11 | 46.53109 | -78.90152 | 36944 ft | 512 kts | 41° |
| 2026-04-30 12:12 | 46.58529 | -78.83453 | 36943 ft | 512 kts | 41° |
| 2026-04-30 12:12 | 46.63950 | -78.76736 | 36950 ft | 512 kts | 41° |
| 2026-04-30 12:13 | 46.69365 | -78.70007 | 36940 ft | 512 kts | 41° |
| 2026-04-30 12:13 | 46.74771 | -78.63270 | 36944 ft | 511 kts | 41° |
| 2026-04-30 12:14 | 46.80175 | -78.56518 | 36944 ft | 511 kts | 41° |
| 2026-04-30 12:14 | 46.85575 | -78.49753 | 36931 ft | 511 kts | 41° |
| 2026-04-30 12:15 | 46.90967 | -78.42977 | 36940 ft | 511 kts | 41° |
| 2026-04-30 12:15 | 46.96359 | -78.36184 | 36941 ft | 511 kts | 42° |
| 2026-04-30 12:16 | 47.01742 | -78.29384 | 36940 ft | 511 kts | 42° |
| 2026-04-30 12:16 | 47.07120 | -78.22571 | 36940 ft | 511 kts | 42° |
| 2026-04-30 12:17 | 47.15182 | -78.12323 | 36941 ft | 511 kts | 42° |
| 2026-04-30 12:17 | 47.20546 | -78.05480 | 36939 ft | 511 kts | 42° |
| 2026-04-30 12:18 | 47.25873 | -77.98666 | 36939 ft | 511 kts | 42° |
| 2026-04-30 12:18 | 47.31230 | -77.91795 | 36939 ft | 510 kts | 42° |
| 2026-04-30 12:19 | 47.36577 | -77.84916 | 36938 ft | 510 kts | 43° |
| 2026-04-30 12:19 | 47.41920 | -77.78024 | 36936 ft | 510 kts | 43° |
| 2026-04-30 12:20 | 47.47257 | -77.71120 | 36934 ft | 510 kts | 43° |
| 2026-04-30 12:20 | 47.52593 | -77.64199 | 36933 ft | 510 kts | 43° |
| 2026-04-30 12:21 | 47.57919 | -77.57270 | 36932 ft | 510 kts | 43° |
| 2026-04-30 12:21 | 47.63240 | -77.50328 | 36925 ft | 509 kts | 43° |
| 2026-04-30 12:22 | 47.68556 | -77.43374 | 36922 ft | 509 kts | 43° |
| 2026-04-30 12:22 | 47.73864 | -77.36410 | 36945 ft | 509 kts | 43° |
| 2026-04-30 12:23 | 47.79173 | -77.29426 | 36929 ft | 509 kts | 43° |
| 2026-04-30 12:23 | 47.84471 | -77.22435 | 36918 ft | 509 kts | 43° |
| 2026-04-30 12:24 | 47.89768 | -77.15426 | 36927 ft | 509 kts | 44° |
| 2026-04-30 12:24 | 47.95059 | -77.08405 | 36925 ft | 509 kts | 44° |
| 2026-04-30 12:25 | 48.00343 | -77.01373 | 36934 ft | 509 kts | 44° |
| 2026-04-30 12:25 | 48.05627 | -76.94321 | 36934 ft | 509 kts | 44° |
| 2026-04-30 12:26 | 48.10906 | -76.87257 | 36936 ft | 509 kts | 44° |
| 2026-04-30 12:26 | 48.16180 | -76.80177 | 36942 ft | 509 kts | 44° |
| 2026-04-30 12:27 | 48.21447 | -76.73087 | 36939 ft | 509 kts | 44° |
| 2026-04-30 12:27 | 48.26710 | -76.65983 | 36928 ft | 509 kts | 44° |
| 2026-04-30 12:28 | 48.31970 | -76.58861 | 36930 ft | 509 kts | 44° |
| 2026-04-30 12:28 | 48.37218 | -76.51735 | 36934 ft | 509 kts | 44° |
| 2026-04-30 12:29 | 48.42465 | -76.44590 | 36937 ft | 509 kts | 44° |
| 2026-04-30 12:29 | 48.47707 | -76.37431 | 36931 ft | 509 kts | 44° |
| 2026-04-30 12:30 | 48.52941 | -76.30262 | 36934 ft | 508 kts | 45° |
| 2026-04-30 12:30 | 48.58177 | -76.23069 | 36938 ft | 508 kts | 45° |
| 2026-04-30 12:31 | 48.63402 | -76.15870 | 36930 ft | 508 kts | 45° |
| 2026-04-30 12:31 | 48.68619 | -76.08660 | 36926 ft | 508 kts | 45° |
| 2026-04-30 12:32 | 48.73835 | -76.01431 | 36931 ft | 508 kts | 45° |
| 2026-04-30 12:32 | 48.79044 | -75.94191 | 36929 ft | 508 kts | 45° |
| 2026-04-30 12:33 | 48.84253 | -75.86929 | 36898 ft | 508 kts | 45° |
| 2026-04-30 12:33 | 48.88573 | -75.80891 | 36920 ft | 508 kts | 45° |
| 2026-04-30 12:34 | 48.93775 | -75.73600 | 36928 ft | 509 kts | 45° |
| 2026-04-30 12:34 | 48.98976 | -75.66288 | 36931 ft | 509 kts | 45° |
| 2026-04-30 12:35 | 49.04173 | -75.58961 | 36923 ft | 509 kts | 46° |
| 2026-04-30 12:35 | 49.09363 | -75.51621 | 36922 ft | 509 kts | 46° |
| 2026-04-30 12:36 | 49.14552 | -75.44261 | 36923 ft | 509 kts | 46° |
| 2026-04-30 12:36 | 49.19741 | -75.36878 | 36924 ft | 510 kts | 46° |
| 2026-04-30 12:37 | 49.24923 | -75.29484 | 36916 ft | 510 kts | 46° |
| 2026-04-30 12:37 | 49.30101 | -75.22071 | 36920 ft | 510 kts | 46° |
| 2026-04-30 12:38 | 49.35282 | -75.14633 | 36900 ft | 510 kts | 46° |
| 2026-04-30 12:38 | 49.40459 | -75.07179 | 36933 ft | 511 kts | 46° |
| 2026-04-30 12:39 | 49.45637 | -74.99700 | 36910 ft | 511 kts | 46° |
| 2026-04-30 12:39 | 49.50813 | -74.92202 | 36928 ft | 512 kts | 46° |
| 2026-04-30 12:40 | 49.55992 | -74.84675 | 36899 ft | 512 kts | 46° |
| 2026-04-30 12:40 | 49.61167 | -74.77133 | 36882 ft | 512 kts | 46° |
| 2026-04-30 12:41 | 49.66335 | -74.69577 | 36880 ft | 512 kts | 46° |
| 2026-04-30 12:41 | 49.71548 | -74.61931 | 36846 ft | 513 kts | 46° |
| 2026-04-30 12:42 | 49.76720 | -74.54322 | 36866 ft | 513 kts | 46° |
| 2026-04-30 12:42 | 49.81613 | -74.46342 | 36865 ft | 510 kts | 53° |
| 2026-04-30 12:43 | 49.86173 | -74.37928 | 36865 ft | 510 kts | 54° |
| 2026-04-30 12:43 | 49.90683 | -74.29392 | 36884 ft | 512 kts | 54° |
| 2026-04-30 12:44 | 49.95184 | -74.20830 | 36919 ft | 512 kts | 54° |
| 2026-04-30 12:44 | 49.99663 | -74.12306 | 36913 ft | 512 kts | 54° |
| 2026-04-30 12:45 | 50.04163 | -74.03726 | 36914 ft | 512 kts | 54° |
| 2026-04-30 12:45 | 50.08659 | -73.95128 | 36917 ft | 512 kts | 54° |
| 2026-04-30 12:46 | 50.13181 | -73.86452 | 36911 ft | 512 kts | 54° |
| 2026-04-30 12:46 | 50.17637 | -73.77875 | 36911 ft | 512 kts | 54° |
| 2026-04-30 12:47 | 50.22112 | -73.69231 | 36909 ft | 512 kts | 54° |
| 2026-04-30 12:47 | 50.26593 | -73.60547 | 36914 ft | 514 kts | 54° |
| 2026-04-30 12:48 | 50.31071 | -73.51842 | 36914 ft | 514 kts | 54° |
| 2026-04-30 12:48 | 50.35544 | -73.43116 | 36917 ft | 514 kts | 54° |
| 2026-04-30 12:49 | 50.40008 | -73.34378 | 36913 ft | 514 kts | 54° |
| 2026-04-30 12:49 | 50.44468 | -73.25617 | 36911 ft | 514 kts | 54° |
| 2026-04-30 12:50 | 50.48922 | -73.16839 | 36917 ft | 514 kts | 55° |
| 2026-04-30 12:50 | 50.53373 | -73.08037 | 36917 ft | 514 kts | 55° |
| 2026-04-30 12:51 | 50.57814 | -72.99227 | 36910 ft | 514 kts | 54° |
| 2026-04-30 12:51 | 50.62253 | -72.90389 | 36913 ft | 515 kts | 54° |
| 2026-04-30 12:52 | 50.66687 | -72.81531 | 36916 ft | 515 kts | 54° |
| 2026-04-30 12:52 | 50.71115 | -72.72656 | 36916 ft | 515 kts | 54° |
| 2026-04-30 12:53 | 50.75537 | -72.63762 | 36915 ft | 515 kts | 54° |
| 2026-04-30 12:53 | 50.79948 | -72.54860 | 36921 ft | 514 kts | 54° |
| 2026-04-30 12:54 | 50.84351 | -72.45945 | 36909 ft | 514 kts | 55° |
| 2026-04-30 12:54 | 50.88744 | -72.37018 | 36919 ft | 514 kts | 55° |
| 2026-04-30 12:55 | 50.93128 | -72.28079 | 36919 ft | 514 kts | 55° |
| 2026-04-30 12:55 | 50.97511 | -72.19110 | 36923 ft | 514 kts | 54° |
| 2026-04-30 12:56 | 51.01890 | -72.10119 | 36916 ft | 515 kts | 55° |
| 2026-04-30 12:56 | 51.06261 | -72.01116 | 36921 ft | 514 kts | 55° |
| 2026-04-30 12:57 | 51.10622 | -71.92099 | 36923 ft | 514 kts | 55° |
| 2026-04-30 12:57 | 51.14977 | -71.83064 | 36918 ft | 514 kts | 55° |
| 2026-04-30 12:58 | 51.19300 | -71.74063 | 36922 ft | 514 kts | 55° |
| 2026-04-30 12:58 | 51.23670 | -71.64935 | 36928 ft | 514 kts | 55° |
| 2026-04-30 12:59 | 51.27977 | -71.55906 | 36903 ft | 514 kts | 55° |
| 2026-04-30 12:59 | 51.32295 | -71.46821 | 36915 ft | 512 kts | 55° |
| 2026-04-30 13:00 | 51.36593 | -71.37748 | 36914 ft | 511 kts | 55° |
| 2026-04-30 13:00 | 51.40882 | -71.28659 | 36936 ft | 511 kts | 55° |
| 2026-04-30 13:01 | 51.45162 | -71.19560 | 36924 ft | 511 kts | 55° |
| 2026-04-30 13:01 | 51.49438 | -71.10436 | 36934 ft | 511 kts | 55° |
| 2026-04-30 13:02 | 51.53701 | -71.01309 | 36941 ft | 511 kts | 55° |
| 2026-04-30 13:02 | 51.57961 | -70.92154 | 36925 ft | 511 kts | 55° |
| 2026-04-30 13:03 | 51.62212 | -70.82988 | 36930 ft | 511 kts | 55° |
| 2026-04-30 13:03 | 51.66453 | -70.73810 | 36948 ft | 511 kts | 55° |
| 2026-04-30 13:04 | 51.70684 | -70.64622 | 36956 ft | 510 kts | 55° |
| 2026-04-30 13:04 | 51.74901 | -70.55431 | 36961 ft | 510 kts | 55° |
| 2026-04-30 13:05 | 51.79112 | -70.46220 | 36956 ft | 510 kts | 55° |
| 2026-04-30 13:06 | 51.85411 | -70.32380 | 36961 ft | 509 kts | 55° |
| 2026-04-30 13:06 | 51.89602 | -70.23129 | 36967 ft | 510 kts | 55° |
| 2026-04-30 13:07 | 51.93785 | -70.13865 | 36967 ft | 510 kts | 55° |
| 2026-04-30 13:07 | 51.97962 | -70.04581 | 36954 ft | 509 kts | 55° |
| 2026-04-30 13:08 | 52.01659 | -69.94856 | 36965 ft | 505 kts | 63° |
| 2026-04-30 13:08 | 52.04983 | -69.84811 | 36972 ft | 504 kts | 64° |
| 2026-04-30 13:09 | 52.08226 | -69.74708 | 36975 ft | 504 kts | 64° |
| 2026-04-30 13:09 | 52.11455 | -69.64600 | 36976 ft | 504 kts | 64° |
| 2026-04-30 13:10 | 52.14691 | -69.54471 | 36977 ft | 504 kts | 64° |
| 2026-04-30 13:10 | 52.17920 | -69.44339 | 36977 ft | 504 kts | 64° |
| 2026-04-30 13:11 | 52.21142 | -69.34189 | 36978 ft | 504 kts | 64° |
| 2026-04-30 13:11 | 52.24355 | -69.24027 | 36982 ft | 504 kts | 64° |
| 2026-04-30 13:12 | 52.27559 | -69.13848 | 36977 ft | 504 kts | 65° |
| 2026-04-30 13:12 | 52.30756 | -69.03651 | 37180 ft | 504 kts | 65° |
| 2026-04-30 13:13 | 52.33942 | -68.93444 | 37437 ft | 504 kts | 65° |
| 2026-04-30 13:13 | 52.35531 | -68.88337 | 37572 ft | 504 kts | 65° |
| 2026-04-30 13:13 | 52.38708 | -68.78096 | 37796 ft | 505 kts | 65° |
| 2026-04-30 13:14 | 52.40293 | -68.72969 | 37876 ft | 505 kts | 65° |
| 2026-04-30 13:14 | 52.41874 | -68.67845 | 38007 ft | 505 kts | 65° |
| 2026-04-30 13:14 | 52.45033 | -68.57573 | 38223 ft | 504 kts | 65° |
| 2026-04-30 13:15 | 52.46607 | -68.52443 | 38339 ft | 504 kts | 65° |
| 2026-04-30 13:15 | 52.49749 | -68.42163 | 38556 ft | 504 kts | 65° |
| 2026-04-30 13:16 | 52.52880 | -68.31874 | 38725 ft | 504 kts | 65° |
| 2026-04-30 13:16 | 52.55473 | -68.23319 | 38851 ft | 504 kts | 65° |
| 2026-04-30 13:17 | 52.58590 | -68.12996 | 38966 ft | 504 kts | 65° |
| 2026-04-30 13:17 | 52.60144 | -68.07831 | 38995 ft | 505 kts | 65° |
| 2026-04-30 13:18 | 52.64799 | -67.92301 | 38982 ft | 504 kts | 65° |
| 2026-04-30 13:18 | 52.69419 | -67.76782 | 38998 ft | 502 kts | 65° |
| 2026-04-30 13:19 | 52.72483 | -67.66434 | 38999 ft | 502 kts | 65° |
| 2026-04-30 13:19 | 52.75539 | -67.56067 | 39004 ft | 502 kts | 65° |
| 2026-04-30 13:20 | 52.78586 | -67.45689 | 39001 ft | 502 kts | 66° |
| 2026-04-30 13:20 | 52.81624 | -67.35294 | 38994 ft | 502 kts | 66° |
| 2026-04-30 13:21 | 52.84652 | -67.24888 | 38986 ft | 502 kts | 66° |
| 2026-04-30 13:22 | 52.89172 | -67.09268 | 38970 ft | 501 kts | 66° |
| 2026-04-30 13:22 | 52.93686 | -66.93567 | 38961 ft | 501 kts | 66° |
| 2026-04-30 13:23 | 52.98069 | -66.77835 | 38961 ft | 500 kts | 68° |
| 2026-04-30 13:24 | 53.03572 | -66.56618 | 38988 ft | 500 kts | 68° |
| 2026-04-30 13:25 | 53.09063 | -66.35377 | 39017 ft | 499 kts | 68° |
| 2026-04-30 13:26 | 53.15876 | -66.08806 | 39025 ft | 499 kts | 68° |
| 2026-04-30 13:28 | 53.22615 | -65.82206 | 39029 ft | 499 kts | 69° |
| 2026-04-30 13:28 | 53.26639 | -65.66166 | 39034 ft | 499 kts | 69° |
| 2026-04-30 13:29 | 53.31970 | -65.44737 | 39039 ft | 499 kts | 69° |
| 2026-04-30 13:31 | 53.38579 | -65.17879 | 39037 ft | 499 kts | 69° |
| 2026-04-30 13:32 | 53.45129 | -64.90929 | 39039 ft | 499 kts | 69° |
| 2026-04-30 13:33 | 53.50328 | -64.69299 | 39045 ft | 499 kts | 69° |
| 2026-04-30 13:34 | 53.54198 | -64.53061 | 39036 ft | 499 kts | 70° |
| 2026-04-30 13:35 | 53.59331 | -64.31327 | 39020 ft | 500 kts | 70° |
| 2026-04-30 13:36 | 53.64434 | -64.09501 | 39019 ft | 501 kts | 70° |
| 2026-04-30 13:36 | 53.68239 | -63.93084 | 39032 ft | 501 kts | 70° |
| 2026-04-30 13:37 | 53.72023 | -63.76627 | 39039 ft | 502 kts | 70° |
| 2026-04-30 13:38 | 53.75791 | -63.60110 | 39058 ft | 502 kts | 70° |
| 2026-04-30 13:39 | 53.80780 | -63.38039 | 39054 ft | 503 kts | 70° |
| 2026-04-30 13:40 | 53.84500 | -63.21433 | 39054 ft | 504 kts | 70° |
| 2026-04-30 13:40 | 53.86973 | -63.10321 | 39056 ft | 504 kts | 71° |
| 2026-04-30 13:41 | 53.89437 | -62.99190 | 39059 ft | 504 kts | 71° |
| 2026-04-30 13:41 | 53.91890 | -62.88047 | 39062 ft | 504 kts | 71° |
| 2026-04-30 13:42 | 53.94331 | -62.76894 | 39058 ft | 504 kts | 71° |
| 2026-04-30 13:42 | 53.97975 | -62.60143 | 39062 ft | 505 kts | 71° |
| 2026-04-30 13:43 | 54.00395 | -62.48937 | 39060 ft | 505 kts | 71° |
| 2026-04-30 13:43 | 54.02804 | -62.37723 | 39058 ft | 505 kts | 71° |
| 2026-04-30 13:44 | 54.05202 | -62.26501 | 39051 ft | 505 kts | 71° |
| 2026-04-30 13:44 | 54.07590 | -62.15258 | 39050 ft | 505 kts | 71° |
| 2026-04-30 13:45 | 54.11155 | -61.98363 | 39049 ft | 506 kts | 72° |
| 2026-04-30 13:46 | 54.13521 | -61.87071 | 39056 ft | 506 kts | 72° |
| 2026-04-30 13:46 | 54.15863 | -61.75835 | 39053 ft | 506 kts | 72° |
| 2026-04-30 13:47 | 54.18209 | -61.64513 | 39055 ft | 506 kts | 72° |
| 2026-04-30 13:47 | 54.20542 | -61.53186 | 39046 ft | 506 kts | 72° |
| 2026-04-30 13:48 | 54.22867 | -61.41834 | 39055 ft | 506 kts | 72° |
| 2026-04-30 13:48 | 54.25189 | -61.30436 | 39052 ft | 509 kts | 72° |
| 2026-04-30 13:49 | 54.27506 | -61.18994 | 39054 ft | 509 kts | 72° |
| 2026-04-30 13:49 | 54.29812 | -61.07542 | 39060 ft | 509 kts | 73° |
| 2026-04-30 13:50 | 54.32103 | -60.96094 | 39058 ft | 508 kts | 73° |
| 2026-04-30 13:50 | 54.35521 | -60.78893 | 39071 ft | 509 kts | 73° |
| 2026-04-30 13:51 | 54.37789 | -60.67393 | 39061 ft | 510 kts | 73° |
| 2026-04-30 13:51 | 54.40048 | -60.55871 | 39061 ft | 510 kts | 73° |
| 2026-04-30 13:52 | 54.42297 | -60.44330 | 39070 ft | 510 kts | 73° |
| 2026-04-30 13:52 | 54.44535 | -60.32780 | 39055 ft | 510 kts | 73° |
| 2026-04-30 13:53 | 54.46763 | -60.21209 | 39069 ft | 510 kts | 73° |
| 2026-04-30 13:53 | 54.48607 | -60.11579 | 39069 ft | 510 kts | 73° |
| 2026-04-30 13:54 | 54.51191 | -59.98003 | 39067 ft | 511 kts | 73° |
| 2026-04-30 13:54 | 54.53389 | -59.86382 | 39075 ft | 511 kts | 73° |
| 2026-04-30 13:55 | 54.55574 | -59.74756 | 39070 ft | 510 kts | 73° |
| 2026-04-30 13:55 | 54.57748 | -59.63112 | 39069 ft | 510 kts | 74° |
| 2026-04-30 13:56 | 54.59913 | -59.51450 | 39083 ft | 511 kts | 74° |
| 2026-04-30 13:56 | 54.62066 | -59.39773 | 39068 ft | 511 kts | 74° |
| 2026-04-30 13:57 | 54.64208 | -59.28086 | 39068 ft | 511 kts | 74° |
| 2026-04-30 13:57 | 54.66341 | -59.16374 | 39070 ft | 511 kts | 74° |
| 2026-04-30 13:58 | 54.69160 | -59.00784 | 39081 ft | 511 kts | 75° |
| 2026-04-30 13:59 | 54.71266 | -58.89047 | 39078 ft | 511 kts | 75° |
| 2026-04-30 13:59 | 54.73358 | -58.77315 | 39064 ft | 511 kts | 75° |
| 2026-04-30 14:00 | 54.75440 | -58.65562 | 39066 ft | 510 kts | 75° |
| 2026-04-30 14:00 | 54.78537 | -58.47934 | 39083 ft | 510 kts | 75° |
| 2026-04-30 14:01 | 54.80588 | -58.36161 | 39086 ft | 510 kts | 75° |
| 2026-04-30 14:01 | 54.82627 | -58.24386 | 39084 ft | 510 kts | 75° |
| 2026-04-30 14:02 | 54.84658 | -58.12578 | 39084 ft | 511 kts | 76° |
| 2026-04-30 14:02 | 54.86675 | -58.00768 | 39079 ft | 511 kts | 76° |
| 2026-04-30 14:03 | 54.88683 | -57.88941 | 39073 ft | 510 kts | 76° |
| 2026-04-30 14:03 | 54.90677 | -57.77110 | 39079 ft | 510 kts | 76° |
| 2026-04-30 14:04 | 54.92660 | -57.65266 | 39082 ft | 510 kts | 76° |
| 2026-04-30 14:04 | 54.94618 | -57.53492 | 39083 ft | 511 kts | 76° |
| 2026-04-30 14:05 | 54.96596 | -57.41515 | 39085 ft | 512 kts | 76° |
| 2026-04-30 14:05 | 54.98550 | -57.29604 | 39086 ft | 511 kts | 76° |
| 2026-04-30 14:06 | 55.01457 | -57.11723 | 39087 ft | 511 kts | 77° |
| 2026-04-30 14:07 | 55.05226 | -56.94337 | 39091 ft | 515 kts | 64° |
| 2026-04-30 14:08 | 55.10441 | -56.77875 | 39091 ft | 518 kts | 62° |
| 2026-04-30 14:08 | 55.15745 | -56.61531 | 39089 ft | 517 kts | 62° |
| 2026-04-30 14:09 | 55.19285 | -56.50476 | 39103 ft | 518 kts | 62° |
| 2026-04-30 14:10 | 55.24517 | -56.33986 | 39092 ft | 519 kts | 62° |
| 2026-04-30 14:10 | 55.28011 | -56.22909 | 39093 ft | 519 kts | 62° |
| 2026-04-30 14:11 | 55.31497 | -56.11807 | 39089 ft | 519 kts | 62° |
| 2026-04-30 14:11 | 55.34974 | -56.00683 | 39088 ft | 519 kts | 62° |
| 2026-04-30 14:12 | 55.38440 | -55.89541 | 39093 ft | 520 kts | 63° |
| 2026-04-30 14:12 | 55.41901 | -55.78367 | 39092 ft | 520 kts | 63° |
| 2026-04-30 14:13 | 55.45351 | -55.67174 | 39092 ft | 520 kts | 63° |
| 2026-04-30 14:13 | 55.48790 | -55.55963 | 39089 ft | 520 kts | 63° |
| 2026-04-30 14:14 | 55.52220 | -55.44731 | 39100 ft | 520 kts | 63° |
| 2026-04-30 14:14 | 55.55641 | -55.33472 | 39094 ft | 521 kts | 63° |
| 2026-04-30 14:15 | 55.59056 | -55.22179 | 39089 ft | 521 kts | 63° |
| 2026-04-30 14:15 | 55.62462 | -55.10864 | 39089 ft | 521 kts | 63° |
| 2026-04-30 14:16 | 55.65856 | -54.99534 | 39096 ft | 521 kts | 63° |
| 2026-04-30 14:16 | 55.69241 | -54.88178 | 39096 ft | 522 kts | 63° |
| 2026-04-30 14:17 | 55.72618 | -54.76795 | 39095 ft | 522 kts | 63° |
| 2026-04-30 14:17 | 55.75987 | -54.65383 | 39088 ft | 522 kts | 63° |
| 2026-04-30 14:18 | 55.79342 | -54.53964 | 39094 ft | 522 kts | 63° |
| 2026-04-30 14:18 | 55.84361 | -54.36775 | 39096 ft | 522 kts | 64° |
| 2026-04-30 14:19 | 55.89359 | -54.19534 | 39093 ft | 522 kts | 64° |
| 2026-04-30 14:20 | 55.92677 | -54.08017 | 39092 ft | 522 kts | 64° |
| 2026-04-30 14:20 | 55.97633 | -53.90707 | 39100 ft | 523 kts | 64° |
| 2026-04-30 14:21 | 56.00930 | -53.79116 | 39101 ft | 524 kts | 64° |
| 2026-04-30 14:22 | 56.05886 | -53.61585 | 39097 ft | 529 kts | 64° |
| 2026-04-30 14:22 | 56.10847 | -53.43908 | 39089 ft | 529 kts | 64° |
| 2026-04-30 14:23 | 56.17418 | -53.20279 | 39091 ft | 530 kts | 64° |
| 2026-04-30 14:24 | 56.22324 | -53.02476 | 39091 ft | 530 kts | 65° |
| 2026-04-30 14:25 | 56.28829 | -52.78655 | 39094 ft | 531 kts | 65° |
| 2026-04-30 14:26 | 56.33682 | -52.60719 | 39092 ft | 531 kts | 65° |
| 2026-04-30 14:27 | 56.38488 | -52.42818 | 39092 ft | 531 kts | 65° |
| 2026-04-30 14:27 | 56.41716 | -52.30715 | 39096 ft | 532 kts | 65° |
| 2026-04-30 14:28 | 56.46487 | -52.12707 | 39090 ft | 532 kts | 65° |
| 2026-04-30 14:28 | 56.49667 | -52.00625 | 39091 ft | 532 kts | 65° |
| 2026-04-30 14:29 | 56.55481 | -51.78361 | 39099 ft | 532 kts | 65° |
| 2026-04-30 14:31 | 56.63849 | -51.45925 | 39090 ft | 533 kts | 66° |
| 2026-04-30 14:31 | 56.68529 | -51.27580 | 39098 ft | 533 kts | 66° |
| 2026-04-30 14:32 | 56.73187 | -51.09168 | 39093 ft | 534 kts | 66° |
| 2026-04-30 14:33 | 56.76278 | -50.96863 | 39090 ft | 534 kts | 66° |
| 2026-04-30 14:33 | 56.80891 | -50.78373 | 39090 ft | 534 kts | 66° |
| 2026-04-30 14:34 | 56.83956 | -50.66000 | 39095 ft | 536 kts | 66° |
| 2026-04-30 14:34 | 56.87017 | -50.53574 | 39091 ft | 536 kts | 66° |
| 2026-04-30 14:35 | 56.91583 | -50.34905 | 39092 ft | 536 kts | 66° |
| 2026-04-30 14:36 | 56.94613 | -50.22431 | 39098 ft | 536 kts | 66° |
| 2026-04-30 14:36 | 56.97630 | -50.09935 | 39092 ft | 537 kts | 66° |
| 2026-04-30 14:37 | 57.00326 | -49.97188 | 39096 ft | 536 kts | 75° |
| 2026-04-30 14:37 | 57.02333 | -49.84024 | 39091 ft | 536 kts | 77° |
| 2026-04-30 14:38 | 57.04197 | -49.70781 | 39099 ft | 536 kts | 77° |
| 2026-04-30 14:38 | 57.06029 | -49.57519 | 39081 ft | 535 kts | 77° |
| 2026-04-30 14:39 | 57.07859 | -49.44263 | 39098 ft | 535 kts | 77° |
| 2026-04-30 14:39 | 57.09685 | -49.30983 | 39105 ft | 535 kts | 77° |
| 2026-04-30 14:40 | 57.12398 | -49.11064 | 39098 ft | 535 kts | 77° |
| 2026-04-30 14:40 | 57.14189 | -48.97766 | 39094 ft | 535 kts | 77° |
| 2026-04-30 14:41 | 57.15966 | -48.84452 | 39108 ft | 536 kts | 77° |
| 2026-04-30 14:41 | 57.17730 | -48.71110 | 39102 ft | 537 kts | 77° |
| 2026-04-30 14:42 | 57.19485 | -48.57727 | 39104 ft | 537 kts | 78° |
| 2026-04-30 14:42 | 57.20930 | -48.46610 | 39112 ft | 536 kts | 78° |
| 2026-04-30 14:43 | 57.22651 | -48.33264 | 39100 ft | 534 kts | 78° |
| 2026-04-30 14:43 | 57.24354 | -48.19929 | 39103 ft | 534 kts | 78° |
| 2026-04-30 14:44 | 57.26045 | -48.06565 | 39109 ft | 535 kts | 78° |
| 2026-04-30 14:44 | 57.27725 | -47.93171 | 39109 ft | 535 kts | 78° |
| 2026-04-30 14:45 | 57.29390 | -47.79767 | 39108 ft | 535 kts | 78° |
| 2026-04-30 14:45 | 57.31040 | -47.66354 | 39113 ft | 535 kts | 78° |
| 2026-04-30 14:46 | 57.32676 | -47.52924 | 39112 ft | 535 kts | 78° |
| 2026-04-30 14:46 | 57.34297 | -47.39499 | 39108 ft | 533 kts | 78° |
| 2026-04-30 14:47 | 57.35895 | -47.26127 | 39117 ft | 531 kts | 78° |
| 2026-04-30 14:47 | 57.37476 | -47.12769 | 39115 ft | 531 kts | 78° |
| 2026-04-30 14:48 | 57.39041 | -46.99410 | 39116 ft | 531 kts | 79° |
| 2026-04-30 14:48 | 57.40593 | -46.86038 | 39121 ft | 531 kts | 79° |
| 2026-04-30 14:49 | 57.42132 | -46.72634 | 39128 ft | 532 kts | 79° |
| 2026-04-30 14:49 | 57.43660 | -46.59202 | 39119 ft | 532 kts | 79° |
| 2026-04-30 14:50 | 57.45926 | -46.39021 | 39109 ft | 532 kts | 79° |
| 2026-04-30 14:51 | 57.48150 | -46.18901 | 39123 ft | 528 kts | 79° |
| 2026-04-30 14:52 | 57.50338 | -45.98795 | 39121 ft | 530 kts | 79° |
| 2026-04-30 14:52 | 57.52497 | -45.78634 | 39131 ft | 530 kts | 79° |
| 2026-04-30 14:53 | 57.54622 | -45.58463 | 39125 ft | 530 kts | 79° |
| 2026-04-30 14:54 | 57.57410 | -45.31492 | 39102 ft | 531 kts | 79° |
| 2026-04-30 14:55 | 57.59464 | -45.11236 | 39125 ft | 530 kts | 80° |
| 2026-04-30 14:56 | 57.62139 | -44.84323 | 39125 ft | 529 kts | 80° |
| 2026-04-30 14:57 | 57.64122 | -44.63952 | 39130 ft | 530 kts | 80° |
| 2026-04-30 14:58 | 57.66701 | -44.36919 | 39125 ft | 530 kts | 80° |
| 2026-04-30 14:58 | 57.68603 | -44.16561 | 39122 ft | 530 kts | 81° |
| 2026-04-30 15:00 | 57.71699 | -43.82588 | 39123 ft | 530 kts | 81° |
| 2026-04-30 15:01 | 57.74112 | -43.55357 | 39132 ft | 530 kts | 81° |
| 2026-04-30 15:01 | 57.75882 | -43.34918 | 39130 ft | 530 kts | 81° |
| 2026-04-30 15:02 | 57.77045 | -43.21271 | 39124 ft | 531 kts | 81° |
| 2026-04-30 15:03 | 57.79888 | -42.87112 | 39129 ft | 531 kts | 82° |
| 2026-04-30 15:04 | 57.82638 | -42.52901 | 39127 ft | 531 kts | 82° |
| 2026-04-30 15:06 | 57.85294 | -42.18675 | 39132 ft | 531 kts | 82° |
| 2026-04-30 15:07 | 57.87358 | -41.91185 | 39137 ft | 532 kts | 82° |
| 2026-04-30 15:08 | 57.89368 | -41.63587 | 39127 ft | 533 kts | 82° |
| 2026-04-30 15:09 | 57.91797 | -41.29028 | 39121 ft | 533 kts | 83° |
| 2026-04-30 15:10 | 57.93676 | -41.01306 | 39125 ft | 535 kts | 83° |
| 2026-04-30 15:11 | 57.96383 | -40.59625 | 39126 ft | 535 kts | 83° |
| 2026-04-30 15:13 | 57.98536 | -40.24833 | 39117 ft | 535 kts | 83° |
| 2026-04-30 15:14 | 58.00976 | -39.76097 | 39114 ft | 535 kts | 86° |
| 2026-04-30 15:17 | 58.03137 | -39.12860 | 39135 ft | 537 kts | 86° |
| 2026-04-30 15:19 | 58.04839 | -38.56475 | 39131 ft | 539 kts | 87° |
| 2026-04-30 17:39 | 54.04021 | -4.12816 | 39139 ft | 460 kts | 114° |
| 2026-04-30 17:42 | 53.92411 | -3.63981 | 39140 ft | 461 kts | 114° |
| 2026-04-30 17:43 | 53.86489 | -3.38683 | 39151 ft | 463 kts | 112° |
| 2026-04-30 17:44 | 53.79809 | -3.08035 | 39150 ft | 463 kts | 112° |
| 2026-04-30 17:47 | 53.69499 | -2.62036 | 39167 ft | 465 kts | 113° |
| 2026-04-30 17:48 | 53.61378 | -2.26490 | 39182 ft | 466 kts | 114° |
| 2026-04-30 17:50 | 53.52151 | -1.85829 | 39211 ft | 462 kts | 110° |
| 2026-04-30 17:52 | 53.46628 | -1.54745 | 39216 ft | 463 kts | 109° |
| 2026-04-30 17:54 | 53.38207 | -1.08200 | 39227 ft | 463 kts | 109° |
| 2026-04-30 17:56 | 53.30556 | -0.66909 | 39238 ft | 465 kts | 109° |
| 2026-04-30 17:58 | 53.24709 | -0.35945 | 39237 ft | 465 kts | 109° |
| 2026-04-30 18:00 | 53.16800 | 0.05136 | 39240 ft | 466 kts | 110° |
| 2026-04-30 18:01 | 53.11774 | 0.30795 | 39241 ft | 466 kts | 110° |
| 2026-04-30 18:02 | 53.05665 | 0.61529 | 39258 ft | 465 kts | 111° |
| 2026-04-30 18:04 | 52.99496 | 0.92083 | 39257 ft | 465 kts | 111° |
| 2026-04-30 18:06 | 52.93912 | 1.34162 | 39270 ft | 469 kts | 103° |
| 2026-04-30 18:07 | 52.91410 | 1.55404 | 38995 ft | 467 kts | 103° |
| 2026-04-30 18:08 | 52.89511 | 1.71233 | 36841 ft | 470 kts | 103° |
| 2026-04-30 18:09 | 52.86936 | 1.92402 | 34124 ft | 468 kts | 103° |
| 2026-04-30 18:10 | 52.84311 | 2.13646 | 30701 ft | 474 kts | 103° |
| 2026-04-30 18:11 | 52.81622 | 2.35088 | 27878 ft | 470 kts | 103° |
| 2026-04-30 18:11 | 52.79647 | 2.50641 | 26264 ft | 453 kts | 103° |
| 2026-04-30 18:12 | 52.77700 | 2.65769 | 24582 ft | 443 kts | 103° |
| 2026-04-30 18:13 | 52.76420 | 2.75631 | 23344 ft | 435 kts | 103° |
| 2026-04-30 18:13 | 52.74739 | 2.88468 | 21802 ft | 425 kts | 104° |
| 2026-04-30 18:14 | 52.73433 | 2.97901 | 20659 ft | 417 kts | 109° |
| 2026-04-30 18:15 | 52.69947 | 3.10751 | 19230 ft | 404 kts | 111° |
| 2026-04-30 18:15 | 52.67275 | 3.23838 | 17586 ft | 396 kts | 110° |
| 2026-04-30 18:16 | 52.65560 | 3.32346 | 16465 ft | 386 kts | 112° |
| 2026-04-30 18:16 | 52.63160 | 3.40089 | 15253 ft | 375 kts | 121° |
| 2026-04-30 18:17 | 52.61837 | 3.43755 | 14640 ft | 371 kts | 122° |
| 2026-04-30 18:17 | 52.60487 | 3.47428 | 14018 ft | 367 kts | 122° |
| 2026-04-30 18:17 | 52.57837 | 3.54563 | 12635 ft | 359 kts | 122° |
| 2026-04-30 18:18 | 52.56540 | 3.58035 | 11949 ft | 355 kts | 122° |
| 2026-04-30 18:18 | 52.55250 | 3.61483 | 11396 ft | 351 kts | 122° |
| 2026-04-30 18:18 | 52.53971 | 3.64893 | 11307 ft | 350 kts | 122° |
| 2026-04-30 18:18 | 52.52679 | 3.68337 | 11188 ft | 338 kts | 122° |
| 2026-04-30 18:19 | 52.51471 | 3.71550 | 11047 ft | 323 kts | 122° |
| 2026-04-30 18:19 | 52.50320 | 3.74606 | 10901 ft | 308 kts | 122° |
| 2026-04-30 18:19 | 52.49218 | 3.77532 | 10759 ft | 294 kts | 122° |
| 2026-04-30 18:19 | 52.48163 | 3.80326 | 10634 ft | 282 kts | 122° |
| 2026-04-30 18:20 | 52.47152 | 3.83003 | 10481 ft | 271 kts | 122° |
| 2026-04-30 18:20 | 52.46162 | 3.85619 | 10071 ft | 270 kts | 122° |
| 2026-04-30 18:20 | 52.45169 | 3.88239 | 9623 ft | 270 kts | 122° |
| 2026-04-30 18:20 | 52.44182 | 3.90842 | 9262 ft | 267 kts | 123° |
| 2026-04-30 18:21 | 52.43208 | 3.93410 | 8939 ft | 264 kts | 123° |
| 2026-04-30 18:21 | 52.42246 | 3.95944 | 8623 ft | 261 kts | 123° |
| 2026-04-30 18:21 | 52.41289 | 3.98459 | 8305 ft | 259 kts | 122° |
| 2026-04-30 18:21 | 52.40326 | 4.00989 | 7995 ft | 257 kts | 122° |
| 2026-04-30 18:22 | 52.39370 | 4.03499 | 7666 ft | 255 kts | 122° |
| 2026-04-30 18:22 | 52.37505 | 4.08388 | 7023 ft | 251 kts | 122° |
| 2026-04-30 18:22 | 52.36581 | 4.10806 | 6721 ft | 250 kts | 122° |
| 2026-04-30 18:23 | 52.35665 | 4.13201 | 6390 ft | 247 kts | 123° |
| 2026-04-30 18:23 | 52.34724 | 4.15661 | 6030 ft | 246 kts | 123° |
| 2026-04-30 18:23 | 52.33785 | 4.18110 | 5679 ft | 246 kts | 123° |
| 2026-04-30 18:23 | 52.32878 | 4.20475 | 5306 ft | 245 kts | 123° |
| 2026-04-30 18:24 | 52.31073 | 4.25176 | 4674 ft | 243 kts | 123° |
| 2026-04-30 18:24 | 52.30125 | 4.27640 | 4400 ft | 242 kts | 123° |
| 2026-04-30 18:24 | 52.29217 | 4.29998 | 4173 ft | 241 kts | 123° |
| 2026-04-30 18:25 | 52.28329 | 4.32305 | 3913 ft | 240 kts | 123° |
| 2026-04-30 18:25 | 52.26565 | 4.36876 | 3422 ft | 236 kts | 123° |
| 2026-04-30 18:25 | 52.25693 | 4.39131 | 3163 ft | 232 kts | 123° |
| 2026-04-30 18:26 | 52.24265 | 4.42821 | 2907 ft | 219 kts | 123° |
| 2026-04-30 18:26 | 52.23468 | 4.44883 | 2781 ft | 211 kts | 122° |
| 2026-04-30 18:26 | 52.22713 | 4.46908 | 2655 ft | 201 kts | 116° |
| 2026-04-30 18:27 | 52.22446 | 4.51286 | 2437 ft | 182 kts | 92° |
| 2026-04-30 18:27 | 52.22491 | 4.53286 | 2352 ft | 171 kts | 92° |
| 2026-04-30 18:28 | 52.22690 | 4.56971 | 2206 ft | 163 kts | 80° |
| 2026-04-30 18:28 | 52.23155 | 4.58720 | 2140 ft | 163 kts | 69° |
| 2026-04-30 18:28 | 52.24286 | 4.61710 | 1734 ft | 146 kts | 67° |
| 2026-04-30 18:29 | 52.24829 | 4.63125 | 1527 ft | 144 kts | 66° |
| 2026-04-30 18:29 | 52.26341 | 4.67056 | 1000 ft | 130 kts | 65° |
| 2026-04-30 18:30 | 52.27143 | 4.69162 | 695 ft | 130 kts | 64° |
| 2026-04-30 18:30 | 52.28268 | 4.72055 | 274 ft | 128 kts | 61° |
| 2026-04-30 18:31 | 52.28748 | 4.73294 | 102 ft | 130 kts | 62° |
| 2026-04-30 18:31 | 52.29558 | 4.75405 | 1 ft | 65 kts | 58° |
| 2026-04-30 18:32 | 52.29937 | 4.76392 | 0 ft | 33 kts | 56° |
| 2026-04-30 18:32 | 52.30065 | 4.76571 | 2 ft | 19 kts | 28° |
| 2026-04-30 18:32 | 52.30274 | 4.76755 | 3 ft | 15 kts | 37° |
| 2026-04-30 18:33 | 52.30338 | 4.76890 | 3 ft | 16 kts | 58° |
| 2026-04-30 18:33 | 52.30473 | 4.77245 | 3 ft | 21 kts | 58° |
| 2026-04-30 18:33 | 52.30544 | 4.77429 | 3 ft | 15 kts | 58° |
| 2026-04-30 18:34 | 52.30625 | 4.77566 | 3 ft | 20 kts | 25° |
| 2026-04-30 18:34 | 52.30977 | 4.77618 | 3 ft | 30 kts | 3° |
| 2026-04-30 18:34 | 52.31189 | 4.77638 | 3 ft | 31 kts | 3° |
| 2026-04-30 18:35 | 52.31371 | 4.77654 | 3 ft | 17 kts | 3° |
| 2026-04-30 18:35 | 52.31480 | 4.77601 | 3 ft | 17 kts | 325° |
| 2026-04-30 18:35 | 52.31564 | 4.77452 | 3 ft | 18 kts | 297° |
| 2026-04-30 18:36 | 52.31565 | 4.77007 | 3 ft | 21 kts | 266° |
| 2026-04-30 18:36 | 52.31558 | 4.76785 | 3 ft | 12 kts | 267° |
| 2026-04-30 18:36 | 52.31470 | 4.76664 | 3 ft | 11 kts | 198° |
| 2026-04-30 18:37 | 52.31403 | 4.76596 | 3 ft | 13 kts | 213° |
| 2026-04-30 18:37 | 52.31324 | 4.76511 | 3 ft | 14 kts | 213° |
| 2026-04-30 18:37 | 52.31235 | 4.76437 | 3 ft | 12 kts | 193° |
| 2026-04-30 18:37 | 52.31186 | 4.76428 | 3 ft | 5 kts | 169° |
| 2026-04-30 18:38 | 52.31167 | 4.76468 | 3 ft | 5 kts | 122° |
| 2026-04-30 18:38 | 52.31153 | 4.76504 | 3 ft | 3 kts | 123° |
| 2026-04-30 18:38 | 52.31146 | 4.76521 | 3 ft | 0 kts | 123° |
| 2026-04-30 18:38 | 52.31144 | 4.76526 | 3 ft | 0 kts | 123° |